Weather at Biskra - Mohamed Khider Airport

Public forecast

Using degrees Celsius for public forecast. Weather courtesy of forecast.io.

Current aviation weather report (METAR) for Biskra - Mohamed Khider Airport

Report is more than 6 hours old.

2022/11/14 15:00 (retrieved 2 years ago)

DAUB 141500Z 12011KT 9999 FEW040 25/06 Q1019

Aviation forecast (TAF) for Biskra - Mohamed Khider Airport

Forecast is more than 12 hours old.

2023/02/22 18:33 (retrieved 1 year ago)

TAF DAUB 221700Z 2218/2318 11008KT 9999 FEW033 SCT100 PROB30 2220/2303 FEW030TCU